Terminal Aerodrome Forecast
Issued by NWS Sioux Falls, SD

Home | Current Version | Previous Version | Graphics & Text | Print | Product List | Glossary Off
Versions: 1 2 3 4 5 6 7 8 9 10 11 12 13 14

000
FTUS43 KFSD 021120
TAFFSD
TAF
KFSD 021120Z 0212/0312 22006KT P6SM SKC
     FM021400 27009KT P6SM SKC
     FM021800 33013G19KT P6SM SKC
     FM030000 35006KT P6SM SKC
     FM030500 36003KT P6SM SKC=

USA.gov is the U.S. government's official web portal to all federal, state and local government web resources and services.